Time;durP1;ratioP1;P1;durP2;ratioP2;P2;SDS_P1;SDS_P2;PMS_P1;PMS_P2;Temp;Humidity;BMP_temperature;BMP_pressure;BME280_temperature;BME280_humidity;BME280_pressure;Samples;Min_cycle;Max_cycle;Signal;HPM_P1;HPM_P2
2023/07/18 00:02:44;;;;;;;1.35;0.55;;;;;;;17.85;58.81;100510.50;10547294;28;20050;-73
2023/07/18 00:07:46;;;;;;;2.55;0.60;;;;;;;17.75;59.29;100508.41;10511128;28;20048;-73
2023/07/18 00:12:48;;;;;;;3.60;0.50;;;;;;;17.62;60.45;100509.03;10546853;28;20047;-74
2023/07/18 00:17:50;;;;;;;0.77;0.30;;;;;;;17.79;58.90;100507.28;10546149;28;20036;-74
2023/07/18 00:22:52;;;;;;;1.05;0.47;;;;;;;17.68;59.51;100505.19;10546481;28;20050;-74
2023/07/18 00:27:54;;;;;;;1.75;0.50;;;;;;;17.51;60.15;100495.44;10546391;28;20051;-74
2023/07/18 00:32:59;;;;;;;0.55;0.40;;;;;;;17.32;61.49;100492.06;10546528;28;20119;-74
2023/07/18 00:38:01;;;;;;;0.50;0.40;;;;;;;17.10;62.49;100498.47;10526685;28;20048;-74
2023/07/18 00:43:03;;;;;;;0.52;0.38;;;;;;;17.09;62.35;100509.19;10545642;28;20123;-73
2023/07/18 00:48:05;;;;;;;1.55;0.60;;;;;;;16.93;63.17;100506.44;10545535;28;20394;-73
2023/07/18 00:53:07;;;;;;;2.13;0.50;;;;;;;17.34;61.28;100511.41;10544453;28;20405;-73
2023/07/18 00:58:10;;;;;;;0.60;0.47;;;;;;;17.29;60.85;100516.97;10544340;28;20029;-73
2023/07/18 01:03:12;;;;;;;1.58;0.60;;;;;;;17.23;61.37;100514.66;10526524;28;20048;-73
2023/07/18 01:08:15;;;;;;;0.98;0.70;;;;;;;17.05;62.08;100510.28;10525686;28;20067;-73
2023/07/18 01:13:16;;;;;;;1.98;0.50;;;;;;;17.08;61.48;100502.13;10525516;28;20094;-73
2023/07/18 01:18:18;;;;;;;1.33;0.70;;;;;;;17.05;61.86;100500.53;10545034;28;20107;-74
2023/07/18 01:23:21;;;;;;;1.05;0.43;;;;;;;16.98;61.99;100499.09;10544612;28;20071;-74
2023/07/18 01:28:24;;;;;;;1.35;0.40;;;;;;;16.85;62.44;100495.34;10544912;28;20036;-73
2023/07/18 01:33:29;;;;;;;1.42;0.70;;;;;;;16.80;61.98;100502.69;10544649;28;20160;-75
2023/07/18 01:38:31;;;;;;;1.02;0.40;;;;;;;16.70;62.38;100496.94;10544219;28;20112;-74
2023/07/18 01:43:34;;;;;;;1.98;0.60;;;;;;;16.64;62.33;100498.13;10544562;28;20052;-73
2023/07/18 01:48:37;;;;;;;2.50;0.50;;;;;;;16.49;63.04;100498.84;10526327;28;20044;-74
2023/07/18 01:53:41;;;;;;;1.33;0.80;;;;;;;16.25;64.69;100500.91;10525869;28;20074;-73
2023/07/18 01:58:44;;;;;;;0.95;0.60;;;;;;;16.39;63.34;100502.91;10525270;28;20051;-73
2023/07/18 02:03:46;;;;;;;0.70;0.70;;;;;;;16.28;63.74;100505.19;10524967;28;20139;-73
2023/07/18 02:08:49;;;;;;;3.78;0.80;;;;;;;16.42;62.76;100513.34;10525240;28;20071;-73
2023/07/18 02:13:50;;;;;;;1.00;0.60;;;;;;;16.43;62.53;100517.75;10525090;28;20067;-73
2023/07/18 02:18:53;;;;;;;1.73;0.77;;;;;;;16.45;62.47;100513.22;10525273;28;20589;-73
2023/07/18 02:23:55;;;;;;;0.90;0.60;;;;;;;16.46;62.01;100517.56;10543148;28;20042;-74
2023/07/18 02:28:57;;;;;;;1.52;0.50;;;;;;;16.30;63.00;100519.25;10524540;28;20036;-73
2023/07/18 02:33:59;;;;;;;2.00;0.73;;;;;;;16.40;62.65;100521.38;10543462;28;20401;-73
2023/07/18 02:39:02;;;;;;;1.20;0.70;;;;;;;16.24;62.93;100522.19;10543909;28;20032;-74
2023/07/18 02:44:05;;;;;;;1.33;0.98;;;;;;;16.22;63.21;100514.31;10526756;28;20078;-73
2023/07/18 02:49:06;;;;;;;1.00;0.70;;;;;;;16.05;63.63;100516.91;10543240;28;20066;-73
2023/07/18 02:54:08;;;;;;;1.75;0.80;;;;;;;15.92;64.02;100519.25;10543164;28;20068;-74
2023/07/18 02:59:10;;;;;;;0.70;0.60;;;;;;;15.99;64.20;100523.34;10542799;28;20409;-73
2023/07/18 03:04:11;;;;;;;0.82;0.80;;;;;;;15.93;64.40;100533.38;10524606;28;20040;-74
2023/07/18 03:09:16;;;;;;;1.50;0.85;;;;;;;15.85;64.64;100521.34;10507522;28;20428;-73
2023/07/18 03:14:18;;;;;;;2.22;0.80;;;;;;;15.86;64.17;100516.91;10524425;28;20047;-73
2023/07/18 03:19:20;;;;;;;3.75;0.70;;;;;;;15.89;63.80;100522.03;10525303;28;20051;-74
2023/07/18 03:24:24;;;;;;;1.83;0.68;;;;;;;15.81;64.28;100510.94;10507537;28;20114;-74
2023/07/18 03:29:26;;;;;;;1.50;0.98;;;;;;;15.88;64.23;100512.38;10524116;28;20047;-74
2023/07/18 03:34:28;;;;;;;0.95;0.60;;;;;;;15.92;63.74;100515.75;10542716;28;20508;-74
2023/07/18 03:39:30;;;;;;;1.48;0.70;;;;;;;15.87;63.97;100513.31;10541653;28;20036;-74
2023/07/18 03:44:32;;;;;;;1.30;0.65;;;;;;;15.67;64.61;100510.69;10526380;28;20077;-74
2023/07/18 03:49:34;;;;;;;1.33;0.70;;;;;;;15.73;64.27;100511.28;10547750;28;20122;-74
2023/07/18 03:54:35;;;;;;;2.17;0.70;;;;;;;15.83;63.95;100517.03;10530817;28;20506;-73
2023/07/18 03:59:38;;;;;;;3.13;0.80;;;;;;;15.84;64.12;100516.09;10547881;28;20048;-74
2023/07/18 04:04:41;;;;;;;2.53;0.80;;;;;;;15.88;64.50;100515.03;10548634;28;20424;-74
2023/07/18 04:09:43;;;;;;;0.88;0.50;;;;;;;15.75;65.44;100516.50;10548216;28;20040;-74
2023/07/18 04:14:44;;;;;;;1.77;0.70;;;;;;;15.79;65.09;100518.94;10548098;28;20032;-74
2023/07/18 04:19:46;;;;;;;2.95;0.88;;;;;;;15.79;65.75;100523.41;10528915;28;20127;-73
2023/07/18 04:24:48;;;;;;;1.60;0.70;;;;;;;15.95;64.43;100528.88;10547310;28;20071;-74
2023/07/18 04:29:50;;;;;;;1.15;0.73;;;;;;;16.09;63.52;100526.44;10528582;28;20460;-74
2023/07/18 04:34:51;;;;;;;1.50;0.70;;;;;;;16.40;62.16;100528.50;10547714;28;20040;-74
2023/07/18 04:39:53;;;;;;;2.28;0.80;;;;;;;16.31;63.50;100523.63;10546352;28;20089;-74
2023/07/18 04:44:56;;;;;;;2.13;0.60;;;;;;;16.11;64.04;100528.09;10526127;28;20443;-74
2023/07/18 04:49:58;;;;;;;0.95;0.50;;;;;;;16.42;63.91;100523.97;10544357;28;20078;-73
2023/07/18 04:54:59;;;;;;;2.80;0.95;;;;;;;16.53;63.93;100513.69;10544179;28;20032;-74
2023/07/18 05:00:03;;;;;;;1.65;0.82;;;;;;;16.79;63.24;100516.91;10525988;28;20501;-74
2023/07/18 05:05:05;;;;;;;5.28;0.82;;;;;;;17.41;60.02;100526.13;10543465;28;20482;-74
2023/07/18 05:10:08;;;;;;;1.17;0.85;;;;;;;17.27;61.05;100532.16;10543944;28;20404;-75
2023/07/18 05:15:10;;;;;;;2.63;0.68;;;;;;;17.89;57.46;100533.31;10543880;28;20081;-74
2023/07/18 05:20:12;;;;;;;2.85;1.00;;;;;;;17.49;58.90;100525.72;10525178;28;20039;-75
2023/07/18 05:25:15;;;;;;;2.85;0.90;;;;;;;17.37;59.85;100527.22;10525233;28;20062;-74
2023/07/18 05:30:19;;;;;;;3.47;0.95;;;;;;;17.45;59.27;100521.50;10543345;28;20323;-75
2023/07/18 05:35:21;;;;;;;1.70;0.90;;;;;;;17.62;59.96;100522.34;10525163;28;20040;-75
2023/07/18 05:40:23;;;;;;;3.58;1.00;;;;;;;17.92;58.05;100529.63;10543203;28;20090;-74
2023/07/18 05:45:25;;;;;;;2.35;0.80;;;;;;;18.09;58.33;100516.25;10543955;28;20063;-76
2023/07/18 05:50:27;;;;;;;2.97;0.93;;;;;;;18.46;56.44;100522.19;10525787;28;20036;-75
2023/07/18 05:55:28;;;;;;;2.38;0.90;;;;;;;18.94;54.70;100517.66;10542999;28;20063;-75
2023/07/18 06:00:30;;;;;;;3.47;0.80;;;;;;;18.88;54.63;100526.03;10541737;28;20067;-72
2023/07/18 06:05:32;;;;;;;3.28;1.08;;;;;;;19.64;53.59;100518.78;10539531;28;20111;-73
2023/07/18 06:10:34;;;;;;;2.88;1.10;;;;;;;20.70;51.11;100513.84;10540428;28;20470;-74
2023/07/18 06:15:36;;;;;;;1.60;0.70;;;;;;;21.33;48.84;100516.69;10540730;28;20092;-73
2023/07/18 06:20:40;;;;;;;2.33;1.05;;;;;;;21.24;47.95;100521.78;10540324;28;20070;-74
2023/07/18 06:25:42;;;;;;;2.30;0.80;;;;;;;21.55;45.75;100513.38;10539799;28;20040;-74
2023/07/18 06:30:44;;;;;;;2.72;1.00;;;;;;;21.64;46.92;100517.22;10539915;28;20048;-73
2023/07/18 06:35:53;;;;;;;4.90;0.90;;;;;;;22.15;44.50;100512.72;10540103;28;20446;-74
2023/07/18 06:40:55;;;;;;;2.65;1.08;;;;;;;22.07;45.31;100523.06;10539721;28;20067;-73
2023/07/18 06:45:56;;;;;;;1.27;0.90;;;;;;;22.27;43.79;100520.78;10539481;28;20032;-73
2023/07/18 06:50:59;;;;;;;1.15;1.02;;;;;;;22.15;45.46;100528.78;10540528;28;20409;-72
2023/07/18 06:56:01;;;;;;;1.67;0.90;;;;;;;22.13;44.29;100524.47;10521373;28;20032;-72
2023/07/18 07:01:03;;;;;;;2.95;0.98;;;;;;;21.87;44.95;100526.34;10539256;28;20044;-73
2023/07/18 07:06:14;;;;;;;2.70;0.82;;;;;;;22.31;45.66;100535.69;10538560;28;20094;-73
2023/07/18 07:11:15;;;;;;;1.73;1.05;;;;;;;22.60;44.79;100521.00;10539159;28;20045;-72
2023/07/18 07:16:18;;;;;;;4.53;1.25;;;;;;;22.66;44.96;100522.38;10521365;28;20126;-74
2023/07/18 07:21:19;;;;;;;1.52;1.17;;;;;;;22.40;44.86;100514.47;10547181;28;20044;-73
2023/07/18 07:26:22;;;;;;;1.65;1.02;;;;;;;21.83;45.29;100511.47;10546865;28;20063;-73
2023/07/18 07:31:24;;;;;;;2.78;1.13;;;;;;;22.76;44.56;100514.53;10546939;28;20040;-72
2023/07/18 07:36:26;;;;;;;1.50;1.08;;;;;;;22.99;43.24;100502.94;10546668;28;20135;-73
2023/07/18 07:41:28;;;;;;;2.85;1.15;;;;;;;23.34;43.54;100507.44;10546547;28;20047;-73
2023/07/18 07:46:32;;;;;;;2.60;1.00;;;;;;;22.95;43.62;100501.47;10546836;28;20111;-73
2023/07/18 07:51:34;;;;;;;2.35;1.10;;;;;;;22.91;43.23;100502.66;10547389;28;20139;-73
2023/07/18 07:56:36;;;;;;;2.03;1.10;;;;;;;23.52;42.02;100500.63;10529458;28;20043;-74
2023/07/18 08:01:38;;;;;;;2.15;1.00;;;;;;;23.66;42.20;100497.72;10546777;28;20105;-73
2023/07/18 08:06:40;;;;;;;3.85;1.27;;;;;;;23.34;42.77;100486.81;10526930;28;20052;-72
2023/07/18 08:11:42;;;;;;;2.45;1.10;;;;;;;22.96;43.77;100478.19;10549168;28;20135;-72
2023/07/18 08:16:44;;;;;;;3.55;1.30;;;;;;;23.55;41.24;100473.56;10545230;28;20036;-72
2023/07/18 08:21:46;;;;;;;2.00;0.90;;;;;;;23.80;41.25;100466.25;10544869;28;20048;-72
2023/07/18 08:26:48;;;;;;;3.17;1.08;;;;;;;24.24;39.76;100462.66;10526603;28;20044;-73
2023/07/18 08:31:52;;;;;;;1.92;0.98;;;;;;;24.53;39.04;100460.28;10525920;28;20064;-72
2023/07/18 08:36:54;;;;;;;2.20;1.00;;;;;;;24.32;38.13;100462.88;10525808;28;20047;-73
2023/07/18 08:41:58;;;;;;;1.85;0.88;;;;;;;24.71;37.45;100448.97;10543834;28;20490;-73
2023/07/18 08:47:02;;;;;;;2.03;1.40;;;;;;;25.31;37.19;100447.41;10543922;28;20054;-73
2023/07/18 08:52:04;;;;;;;2.47;1.10;;;;;;;25.54;36.48;100446.22;10525397;28;20051;-75
2023/07/18 08:57:07;;;;;;;1.50;1.05;;;;;;;25.14;38.10;100435.41;10525289;28;20047;-73
2023/07/18 09:02:09;;;;;;;2.97;1.10;;;;;;;25.60;37.50;100432.25;10524733;28;20062;-72
2023/07/18 09:07:14;;;;;;;2.50;0.98;;;;;;;25.52;36.53;100429.38;10543195;28;20050;-73
2023/07/18 09:12:16;;;;;;;1.93;1.13;;;;;;;25.66;36.04;100412.84;10543862;28;20032;-74
2023/07/18 09:17:17;;;;;;;1.35;1.10;;;;;;;25.93;34.65;100406.00;10543122;28;20047;-71
2023/07/18 09:22:19;;;;;;;2.35;1.00;;;;;;;25.51;37.92;100399.91;10542534;28;20067;-73
2023/07/18 09:27:21;;;;;;;3.13;1.20;;;;;;;25.33;35.51;100397.84;10542257;28;20047;-73
2023/07/18 09:32:23;;;;;;;1.85;0.98;;;;;;;26.19;33.60;100386.63;10542725;28;20040;-73
2023/07/18 09:37:25;;;;;;;1.95;0.88;;;;;;;26.65;34.40;100385.94;10543908;28;20447;-72
2023/07/18 09:42:28;;;;;;;1.95;1.15;;;;;;;26.77;34.49;100387.50;10543470;28;20104;-73
2023/07/18 09:47:31;;;;;;;3.50;1.25;;;;;;;26.88;32.19;100378.41;10525162;28;20032;-72
2023/07/18 09:52:39;;;;;;;1.85;0.82;;;;;;;27.51;31.04;100375.94;10544077;28;20074;-73
2023/07/18 09:57:42;;;;;;;1.95;1.13;;;;;;;27.64;32.05;100362.09;10544854;28;20043;-71
2023/07/18 10:02:44;;;;;;;1.35;1.02;;;;;;;27.55;31.39;100358.44;10545949;28;20044;-71
2023/07/18 10:07:48;;;;;;;3.03;1.20;;;;;;;27.34;31.96;100347.88;10546857;28;20036;-72
2023/07/18 10:12:59;;;;;;;2.15;0.90;;;;;;;27.58;31.66;100363.53;10547442;28;20451;-72
2023/07/18 10:18:17;;;;;;;1.88;0.90;;;;;;;27.64;32.26;100354.81;10530145;28;20102;-73
2023/07/18 10:23:42;;;;;;;2.00;1.27;;;;;;;27.59;32.44;100330.13;10550276;28;20048;-72
2023/07/18 10:28:45;;;;;;;2.25;1.38;;;;;;;28.13;30.97;100330.22;10547989;28;20036;-72
2023/07/18 10:34:07;;;;;;;5.05;1.13;;;;;;;27.97;30.59;100316.53;10544020;28;20040;-71
2023/07/18 10:39:12;;;;;;;2.38;1.05;;;;;;;27.94;31.05;100306.06;10545778;28;20127;-72
2023/07/18 10:44:15;;;;;;;;;;;;;;;28.62;30.85;100299.03;10545498;28;20575;-73
2023/07/18 10:49:17;;;;;;;1.70;1.02;;;;;;;28.16;30.39;100295.63;10544566;28;20010;-72
2023/07/18 10:54:19;;;;;;;2.88;1.10;;;;;;;28.73;31.27;100284.41;10550029;28;20090;-72
2023/07/18 10:59:22;;;;;;;2.20;1.13;;;;;;;28.28;30.33;100263.75;10552483;28;20123;-72
2023/07/18 11:04:25;;;;;;;2.25;1.20;;;;;;;28.88;29.72;100252.19;10552238;28;20060;-72
2023/07/18 11:09:27;;;;;;;2.85;1.10;;;;;;;28.60;30.49;100249.66;10550445;28;20039;-73
2023/07/18 11:14:39;;;;;;;2.75;1.25;;;;;;;28.31;28.77;100239.13;10532413;28;20109;-72
2023/07/18 11:19:41;;;;;;;2.20;1.10;;;;;;;28.69;29.05;100228.06;10549050;28;20060;-73
2023/07/18 11:24:45;;;;;;;1.10;0.90;;;;;;;28.88;29.65;100217.00;10550978;28;20092;-72
2023/07/18 11:29:57;;;;;;;1.38;1.10;;;;;;;29.14;28.36;100208.84;10533395;28;20048;-72
2023/07/18 11:34:59;;;;;;;1.42;1.10;;;;;;;29.11;28.29;100226.25;10553137;28;20126;-72
2023/07/18 11:40:02;;;;;;;1.80;1.20;;;;;;;28.96;28.92;100216.25;10554546;28;20036;-72
2023/07/18 11:45:08;;;;;;;3.72;1.10;;;;;;;29.04;28.69;100205.41;10552158;28;20122;-72
2023/07/18 11:50:11;;;;;;;1.88;1.05;;;;;;;29.26;27.85;100196.69;10533789;28;20067;-71
2023/07/18 11:55:15;;;;;;;1.90;1.40;;;;;;;29.03;27.10;100199.16;10549667;28;20044;-71
2023/07/18 12:00:18;;;;;;;2.47;1.10;;;;;;;28.87;27.47;100218.03;10532393;28;20046;-71
2023/07/18 12:05:20;;;;;;;2.25;1.08;;;;;;;28.96;28.88;100202.72;10555231;28;20051;-72
2023/07/18 12:10:26;;;;;;;2.05;1.02;;;;;;;29.11;29.25;100198.34;10555139;28;20059;-73
2023/07/18 12:15:28;;;;;;;2.03;1.13;;;;;;;29.10;28.13;100202.91;10547528;28;20064;-72
2023/07/18 12:20:30;;;;;;;2.33;1.23;;;;;;;29.27;27.76;100197.56;10548565;28;20036;-71
2023/07/18 12:25:32;;;;;;;1.52;1.20;;;;;;;29.09;28.18;100176.03;10546775;28;20074;-72
2023/07/18 12:30:34;;;;;;;2.45;1.25;;;;;;;29.27;27.40;100175.91;10545006;28;20043;-72
2023/07/18 12:35:37;;;;;;;2.40;1.10;;;;;;;28.15;28.66;100172.28;10544588;28;20056;-72
2023/07/18 12:40:39;;;;;;;6.18;1.10;;;;;;;28.31;28.21;100160.72;10545241;28;20051;-72
2023/07/18 12:45:44;;;;;;;1.58;1.10;;;;;;;27.67;28.63;100164.66;10545693;28;20455;-72
2023/07/18 12:50:46;;;;;;;2.08;1.13;;;;;;;27.66;29.30;100150.25;10545203;28;20109;-72
2023/07/18 12:55:48;;;;;;;1.33;1.10;;;;;;;27.93;30.57;100159.28;10546703;28;20416;-72
2023/07/18 13:00:50;;;;;;;3.70;1.38;;;;;;;28.20;29.49;100143.94;10547182;28;20470;-72
2023/07/18 13:05:52;;;;;;;2.40;1.10;;;;;;;27.85;29.37;100118.72;10547096;28;21661;-72
2023/07/18 13:10:55;;;;;;;1.92;1.20;;;;;;;27.57;30.27;100129.59;10545572;28;20105;-71
2023/07/18 13:15:57;;;;;;;1.75;1.20;;;;;;;27.39;29.35;100136.88;10546917;28;20440;-72
2023/07/18 13:20:59;;;;;;;2.58;1.20;;;;;;;27.49;30.07;100128.69;10547059;28;20048;-71
2023/07/18 13:26:02;;;;;;;4.93;1.10;;;;;;;27.10;29.68;100140.66;10532595;28;20135;-72
2023/07/18 13:31:04;;;;;;;2.97;1.27;;;;;;;27.05;29.97;100137.53;10550704;28;20036;-72
2023/07/18 13:36:06;;;;;;;1.90;1.02;;;;;;;27.28;30.53;100126.31;10546126;28;20089;-72
2023/07/18 13:41:10;;;;;;;1.10;1.00;;;;;;;27.44;29.58;100115.66;10548662;28;20040;-71
2023/07/18 13:46:14;;;;;;;1.30;1.20;;;;;;;27.02;29.55;100104.59;10547670;28;20048;-72
2023/07/18 13:51:16;;;;;;;1.48;0.93;;;;;;;26.89;30.74;100110.38;10528525;28;20071;-72
2023/07/18 13:56:20;;;;;;;2.15;0.90;;;;;;;27.31;30.77;100123.28;10547808;28;20040;-72
2023/07/18 14:01:23;;;;;;;2.22;1.00;;;;;;;27.69;29.62;100116.72;10546565;28;20127;-71
2023/07/18 14:06:28;;;;;;;1.67;1.00;;;;;;;27.63;28.45;100109.25;10529599;28;20036;-71
2023/07/18 14:11:31;;;;;;;2.03;1.42;;;;;;;27.85;28.10;100102.53;10545271;28;20462;-72
2023/07/18 14:16:33;;;;;;;1.10;1.00;;;;;;;27.84;29.02;100081.91;10542385;28;20448;-71
2023/07/18 14:21:35;;;;;;;1.40;1.00;;;;;;;27.77;28.64;100070.91;10541828;28;20052;-73
2023/07/18 14:26:37;;;;;;;2.15;1.38;;;;;;;27.55;29.29;100047.06;10523686;28;20051;-72
2023/07/18 14:31:42;;;;;;;2.22;1.10;;;;;;;27.36;29.25;100026.53;10543083;28;20065;-72
2023/07/18 14:36:44;;;;;;;2.03;1.40;;;;;;;27.90;28.78;100038.91;10528730;28;20036;-71
2023/07/18 14:41:47;;;;;;;1.77;0.95;;;;;;;27.37;29.52;100039.00;10543805;28;20105;-72
2023/07/18 14:46:49;;;;;;;1.25;0.88;;;;;;;27.65;28.79;100026.22;10545312;28;20482;-71
2023/07/18 14:51:51;;;;;;;2.05;1.08;;;;;;;27.35;29.05;100030.22;10544489;28;20040;-72
2023/07/18 14:56:53;;;;;;;2.83;1.27;;;;;;;27.60;28.86;100013.19;10543294;28;20040;-72
2023/07/18 15:01:58;;;;;;;1.92;1.00;;;;;;;27.41;28.21;100008.00;10544286;28;20131;-72
2023/07/18 15:07:00;;;;;;;2.35;1.10;;;;;;;27.51;28.56;100010.59;10551967;28;20051;-73
2023/07/18 15:12:03;;;;;;;1.52;0.98;;;;;;;27.52;27.93;99998.78;10535548;28;20032;-71
2023/07/18 15:17:06;;;;;;;1.98;1.20;;;;;;;27.76;28.28;99990.00;10552782;28;20048;-72
2023/07/18 15:22:09;;;;;;;1.92;1.00;;;;;;;28.09;27.33;99983.75;10557912;28;20127;-72
2023/07/18 15:27:12;;;;;;;1.17;0.90;;;;;;;28.10;27.89;99968.38;10557652;28;20460;-72
2023/07/18 15:32:15;;;;;;;1.67;0.90;;;;;;;28.45;26.93;99977.31;10557996;28;20044;-72
2023/07/18 15:37:18;;;;;;;3.30;1.20;;;;;;;28.77;26.56;99974.66;10553925;28;20109;-72
2023/07/18 15:42:21;;;;;;;3.75;1.05;;;;;;;27.54;28.16;99964.41;10562981;28;20048;-71
2023/07/18 15:47:23;;;;;;;4.40;1.33;;;;;;;26.98;28.12;99950.28;10545082;28;20040;-71
2023/07/18 15:52:27;;;;;;;2.13;1.20;;;;;;;27.46;27.78;99948.13;10563139;28;20036;-73
2023/07/18 15:57:30;;;;;;;3.78;1.25;;;;;;;28.27;27.37;99947.69;10559943;28;20040;-72
2023/07/18 16:02:32;;;;;;;1.45;1.10;;;;;;;28.58;26.67;99943.38;10556857;28;20040;-72
2023/07/18 16:07:38;;;;;;;1.38;1.20;;;;;;;27.64;27.66;99925.47;10557720;28;20040;-72
2023/07/18 16:12:42;;;;;;;1.58;1.20;;;;;;;27.57;28.25;99932.50;10556655;28;20130;-72
2023/07/18 16:17:44;;;;;;;1.02;0.80;;;;;;;26.97;27.82;99932.44;10550223;28;20107;-72
2023/07/18 16:22:52;;;;;;;1.92;1.10;;;;;;;26.17;29.25;99931.47;10554763;28;20044;-72
2023/07/18 16:27:54;;;;;;;1.90;1.15;;;;;;;26.23;29.42;99925.47;10553218;28;20121;-72
2023/07/18 16:32:57;;;;;;;2.08;1.50;;;;;;;26.63;28.75;99927.75;10536980;28;20047;-73
2023/07/18 16:37:59;;;;;;;3.30;1.50;;;;;;;26.53;29.13;99916.19;10549226;28;20501;-73
2023/07/18 16:43:04;;;;;;;2.70;1.00;;;;;;;26.48;29.00;99913.13;10551415;28;20050;-73
2023/07/18 16:48:07;;;;;;;1.20;1.10;;;;;;;26.10;29.06;99898.03;10551379;28;20036;-72
2023/07/18 16:53:09;;;;;;;4.35;1.25;;;;;;;26.34;29.05;99898.31;10550808;28;20036;-72
2023/07/18 16:58:11;;;;;;;2.42;1.42;;;;;;;26.06;29.77;99905.56;10537920;28;20389;-72
2023/07/18 17:03:14;;;;;;;1.70;1.02;;;;;;;25.72;29.40;99890.97;10552124;28;20050;-72
2023/07/18 17:08:16;;;;;;;1.05;0.88;;;;;;;25.62;29.58;99886.50;10549937;28;20082;-73
2023/07/18 17:13:19;;;;;;;3.05;1.10;;;;;;;25.69;29.06;99889.47;10533486;28;20070;-73
2023/07/18 17:18:22;;;;;;;2.05;1.45;;;;;;;25.30;30.05;99888.75;10538266;28;20051;-73
2023/07/18 17:23:24;;;;;;;4.50;1.30;;;;;;;25.10;30.41;99872.69;10555417;28;20046;-73
2023/07/18 17:28:28;;;;;;;1.95;1.00;;;;;;;25.27;30.06;99873.75;10544546;28;20469;-74
2023/07/18 17:33:30;;;;;;;1.70;1.30;;;;;;;25.22;29.73;99864.44;10552066;28;20048;-73
2023/07/18 17:38:33;;;;;;;2.75;1.15;;;;;;;25.08;30.08;99858.53;10536297;28;20405;-74
2023/07/18 17:43:36;;;;;;;6.30;1.55;;;;;;;24.85;30.46;99847.25;10554519;28;20040;-73
2023/07/18 17:48:38;;;;;;;2.47;1.10;;;;;;;24.87;30.34;99847.09;10533858;28;20104;-74
2023/07/18 17:53:41;;;;;;;3.83;1.02;;;;;;;24.79;30.46;99842.44;10548878;28;20040;-74
2023/07/18 17:58:43;;;;;;;1.58;1.48;;;;;;;24.67;30.64;99846.28;10526967;28;20036;-74
2023/07/18 18:03:45;;;;;;;3.15;1.05;;;;;;;24.62;29.62;99852.09;10529011;28;20558;-74
2023/07/18 18:08:47;;;;;;;1.50;0.80;;;;;;;24.59;30.14;99851.53;10529646;28;20050;-73
2023/07/18 18:13:49;;;;;;;1.38;1.00;;;;;;;24.30;30.82;99841.59;10547936;28;20093;-73
2023/07/18 18:18:51;;;;;;;1.52;1.00;;;;;;;24.29;31.13;99831.00;10523917;28;20375;-76
2023/07/18 18:23:53;;;;;;;1.27;1.08;;;;;;;24.07;31.30;99838.31;10522758;28;20421;-75
2023/07/18 18:28:55;;;;;;;2.20;1.27;;;;;;;23.96;31.70;99833.09;10540301;28;20032;-74
2023/07/18 18:33:59;;;;;;;1.83;1.08;;;;;;;24.00;31.49;99831.00;10522570;28;20051;-74
2023/07/18 18:39:02;;;;;;;3.65;1.23;;;;;;;23.79;31.66;99825.72;10522552;28;20436;-75
2023/07/18 18:44:04;;;;;;;2.97;1.42;;;;;;;23.74;32.06;99825.28;10540304;28;20048;-75
2023/07/18 18:49:07;;;;;;;2.17;1.23;;;;;;;23.74;32.62;99827.97;10539836;28;20516;-73
2023/07/18 18:54:26;;;;;;;1.75;1.40;;;;;;;23.49;32.75;99835.50;10539954;28;20047;-75
2023/07/18 18:59:27;;;;;;;3.53;1.50;;;;;;;23.30;34.29;99840.78;10540661;28;20043;-74
2023/07/18 19:04:30;;;;;;;1.98;1.20;;;;;;;23.37;34.86;99840.13;10540047;28;20046;-75
2023/07/18 19:09:31;;;;;;;1.98;1.30;;;;;;;23.06;36.18;99843.78;10538393;28;20044;-75
2023/07/18 19:14:39;;;;;;;2.90;1.60;;;;;;;22.75;37.81;99846.38;10543431;28;20040;-75
2023/07/18 19:19:42;;;;;;;3.08;1.92;;;;;;;22.67;38.25;99856.91;10548477;28;20044;-75
2023/07/18 19:24:44;;;;;;;1.73;1.50;;;;;;;22.53;38.64;99868.78;10548146;28;20054;-75
2023/07/18 19:29:46;;;;;;;5.45;1.85;;;;;;;22.25;38.68;99880.94;10547903;28;20067;-75
2023/07/18 19:34:48;;;;;;;3.97;1.80;;;;;;;22.01;39.17;99878.44;10547324;28;20044;-75
2023/07/18 19:39:50;;;;;;;2.28;2.03;;;;;;;22.07;39.17;99874.41;10546969;28;20090;-75
2023/07/18 19:44:53;;;;;;;5.53;3.10;;;;;;;21.71;39.94;99863.06;10546461;28;20051;-75
2023/07/18 19:49:55;;;;;;;3.05;2.58;;;;;;;21.70;40.15;99863.19;10545350;28;20043;-75
2023/07/18 19:54:57;;;;;;;3.97;2.40;;;;;;;21.48;40.62;99861.38;10546485;28;20390;-75
2023/07/18 19:59:59;;;;;;;3.25;2.65;;;;;;;21.39;40.72;99863.81;10546319;28;20040;-74
2023/07/18 20:05:01;;;;;;;4.32;2.25;;;;;;;21.15;42.16;99858.53;10546510;28;20093;-75
2023/07/18 20:10:03;;;;;;;3.17;2.30;;;;;;;21.23;41.46;99870.44;10546277;28;20044;-75
2023/07/18 20:15:05;;;;;;;2.70;1.67;;;;;;;21.02;42.50;99857.78;10544588;28;20059;-75
2023/07/18 20:20:08;;;;;;;3.10;1.85;;;;;;;20.91;42.85;99857.78;10547607;28;20071;-75
2023/07/18 20:25:10;;;;;;;3.03;2.22;;;;;;;20.91;43.56;99850.63;10545787;28;20418;-75
2023/07/18 20:30:12;;;;;;;2.80;1.85;;;;;;;20.79;43.25;99842.69;10547154;28;20032;-75
2023/07/18 20:35:14;;;;;;;3.15;2.00;;;;;;;20.55;44.43;99848.97;10546566;28;20044;-77
2023/07/18 20:40:16;;;;;;;3.47;2.00;;;;;;;20.55;45.17;99859.66;10544764;28;20143;-75
2023/07/18 20:45:27;;;;;;;3.45;1.95;;;;;;;20.48;45.37;99863.72;10545670;28;20047;-74
2023/07/18 20:50:32;;;;;;;2.67;1.63;;;;;;;20.47;44.69;99867.34;10546432;28;20036;-75
2023/07/18 20:55:34;;;;;;;3.05;1.45;;;;;;;20.28;44.84;99864.38;10544875;28;20059;-76
2023/07/18 21:00:36;;;;;;;2.30;1.55;;;;;;;20.17;46.08;99875.81;10543741;28;20506;-75
2023/07/18 21:05:38;;;;;;;3.53;1.70;;;;;;;20.14;46.79;99868.91;10544327;28;20052;-75
2023/07/18 21:10:40;;;;;;;4.05;1.73;;;;;;;20.14;46.53;99874.25;10544398;28;20059;-75
2023/07/18 21:15:42;;;;;;;3.17;1.92;;;;;;;20.06;47.96;99873.13;10545933;28;20398;-75
2023/07/18 21:20:43;;;;;;;1.65;1.52;;;;;;;20.00;47.17;99868.22;10544448;28;20064;-75
2023/07/18 21:25:45;;;;;;;3.80;1.60;;;;;;;19.65;48.08;99867.13;10543449;28;20044;-75
2023/07/18 21:30:47;;;;;;;2.95;1.67;;;;;;;19.74;48.54;99867.44;10525822;28;20075;-75
2023/07/18 21:35:49;;;;;;;3.42;1.90;;;;;;;19.56;48.93;99865.09;10543213;28;20062;-76
2023/07/18 21:40:51;;;;;;;2.38;1.83;;;;;;;19.48;48.80;99861.28;10542743;28;20581;-75
2023/07/18 21:45:53;;;;;;;3.33;1.90;;;;;;;19.58;49.53;99857.00;10543284;28;20529;-75
2023/07/18 21:50:55;;;;;;;1.90;1.60;;;;;;;19.44;49.61;99855.34;10542285;28;20032;-75
2023/07/18 21:55:57;;;;;;;2.30;1.35;;;;;;;19.13;50.62;99851.31;10542286;28;20060;-74
2023/07/18 22:01:03;;;;;;;2.67;2.28;;;;;;;19.30;50.58;99844.78;10543295;28;20056;-74
2023/07/18 22:06:05;;;;;;;2.38;1.70;;;;;;;18.92;52.95;99843.00;10542259;28;20040;-74
2023/07/18 22:11:11;;;;;;;2.30;1.40;;;;;;;18.76;52.54;99831.69;10543188;28;20040;-76
2023/07/18 22:16:13;;;;;;;1.67;1.58;;;;;;;18.87;52.99;99816.69;10542548;28;20036;-75
2023/07/18 22:21:15;;;;;;;2.80;1.92;;;;;;;18.78;53.00;99820.00;10542647;28;20097;-75
2023/07/18 22:26:17;;;;;;;2.30;1.42;;;;;;;18.69;53.56;99814.44;10523110;28;20079;-75
2023/07/18 22:31:19;;;;;;;2.28;1.73;;;;;;;18.61;53.45;99813.13;10541840;28;20068;-75
2023/07/18 22:36:21;;;;;;;3.70;1.85;;;;;;;18.52;53.71;99797.78;10541167;28;20047;-75
2023/07/18 22:41:23;;;;;;;2.67;1.70;;;;;;;18.40;54.51;99803.94;10541918;28;20051;-75
2023/07/18 22:46:25;;;;;;;1.98;1.60;;;;;;;18.43;54.00;99806.41;10541005;28;20047;-74
2023/07/18 22:51:28;;;;;;;2.15;1.85;;;;;;;18.42;54.35;99804.72;10548400;28;20036;-75
2023/07/18 22:56:30;;;;;;;2.90;1.75;;;;;;;18.23;55.06;99804.22;10549779;28;20040;-74
2023/07/18 23:01:32;;;;;;;1.77;1.45;;;;;;;18.21;55.10;99795.50;10548777;28;20064;-74
2023/07/18 23:06:34;;;;;;;2.90;1.90;;;;;;;17.93;56.51;99783.16;10549133;28;20044;-74
2023/07/18 23:11:35;;;;;;;3.13;1.50;;;;;;;17.97;56.70;99776.69;10550055;28;20543;-74
2023/07/18 23:16:37;;;;;;;2.63;1.50;;;;;;;18.13;54.88;99782.72;10529814;28;20044;-74